sensor_id;sensor_type;location;lat;lon;timestamp;temperature;humidity
51661;DHT22;37741;49.748;8.490;2022-07-06T00:01:15;24.40;44.10
51661;DHT22;37741;49.748;8.490;2022-07-06T00:03:41;24.30;44.00
51661;DHT22;37741;49.748;8.490;2022-07-06T00:06:07;24.30;44.20
51661;DHT22;37741;49.748;8.490;2022-07-06T00:08:33;24.20;44.40
51661;DHT22;37741;49.748;8.490;2022-07-06T00:10:58;24.20;44.50
51661;DHT22;37741;49.748;8.490;2022-07-06T00:13:24;24.20;44.80
51661;DHT22;37741;49.748;8.490;2022-07-06T00:15:50;24.10;44.80
51661;DHT22;37741;49.748;8.490;2022-07-06T00:18:15;24.10;44.70
51661;DHT22;37741;49.748;8.490;2022-07-06T00:20:41;24.00;44.70
51661;DHT22;37741;49.748;8.490;2022-07-06T00:23:06;24.00;45.30
51661;DHT22;37741;49.748;8.490;2022-07-06T00:25:32;23.90;45.10
51661;DHT22;37741;49.748;8.490;2022-07-06T00:27:58;23.90;45.20
51661;DHT22;37741;49.748;8.490;2022-07-06T00:30:23;23.90;45.50
51661;DHT22;37741;49.748;8.490;2022-07-06T00:32:49;23.80;45.50
51661;DHT22;37741;49.748;8.490;2022-07-06T00:35:15;23.80;45.80
51661;DHT22;37741;49.748;8.490;2022-07-06T00:37:40;23.70;45.80
51661;DHT22;37741;49.748;8.490;2022-07-06T00:40:06;23.70;46.10
51661;DHT22;37741;49.748;8.490;2022-07-06T00:42:42;23.70;45.80
51661;DHT22;37741;49.748;8.490;2022-07-06T00:45:09;23.60;46.20
51661;DHT22;37741;49.748;8.490;2022-07-06T00:47:35;23.60;46.10
51661;DHT22;37741;49.748;8.490;2022-07-06T00:50:03;23.60;46.30
51661;DHT22;37741;49.748;8.490;2022-07-06T00:52:46;23.50;46.40
51661;DHT22;37741;49.748;8.490;2022-07-06T00:55:13;23.50;46.40
51661;DHT22;37741;49.748;8.490;2022-07-06T00:57:41;23.50;46.60
51661;DHT22;37741;49.748;8.490;2022-07-06T01:00:09;23.40;46.80
51661;DHT22;37741;49.748;8.490;2022-07-06T01:02:35;23.40;46.90
51661;DHT22;37741;49.748;8.490;2022-07-06T01:05:05;23.40;47.00
51661;DHT22;37741;49.748;8.490;2022-07-06T01:07:31;23.40;47.00
51661;DHT22;37741;49.748;8.490;2022-07-06T01:09:57;23.30;47.00
51661;DHT22;37741;49.748;8.490;2022-07-06T01:12:23;23.30;46.90
51661;DHT22;37741;49.748;8.490;2022-07-06T01:14:49;23.30;47.00
51661;DHT22;37741;49.748;8.490;2022-07-06T01:17:15;23.40;47.10
51661;DHT22;37741;49.748;8.490;2022-07-06T01:19:41;23.40;46.90
51661;DHT22;37741;49.748;8.490;2022-07-06T01:22:07;23.40;46.90
51661;DHT22;37741;49.748;8.490;2022-07-06T01:24:37;23.40;47.10
51661;DHT22;37741;49.748;8.490;2022-07-06T01:27:07;23.40;47.00
51661;DHT22;37741;49.748;8.490;2022-07-06T01:29:33;23.40;47.10
51661;DHT22;37741;49.748;8.490;2022-07-06T01:32:00;23.30;47.30
51661;DHT22;37741;49.748;8.490;2022-07-06T01:34:26;23.30;47.20
51661;DHT22;37741;49.748;8.490;2022-07-06T01:36:52;23.30;47.10
51661;DHT22;37741;49.748;8.490;2022-07-06T01:39:18;23.30;47.40
51661;DHT22;37741;49.748;8.490;2022-07-06T01:41:44;23.30;47.40
51661;DHT22;37741;49.748;8.490;2022-07-06T01:44:10;23.30;47.20
51661;DHT22;37741;49.748;8.490;2022-07-06T01:46:36;23.20;47.50
51661;DHT22;37741;49.748;8.490;2022-07-06T01:49:02;23.20;47.60
51661;DHT22;37741;49.748;8.490;2022-07-06T01:51:28;23.20;47.70
51661;DHT22;37741;49.748;8.490;2022-07-06T01:53:53;23.10;47.60
51661;DHT22;37741;49.748;8.490;2022-07-06T01:56:19;23.10;47.50
51661;DHT22;37741;49.748;8.490;2022-07-06T01:58:46;23.10;47.60
51661;DHT22;37741;49.748;8.490;2022-07-06T02:01:16;23.10;47.70
51661;DHT22;37741;49.748;8.490;2022-07-06T02:03:42;23.00;47.80
51661;DHT22;37741;49.748;8.490;2022-07-06T02:06:08;23.00;47.90
51661;DHT22;37741;49.748;8.490;2022-07-06T02:08:35;23.00;47.90
51661;DHT22;37741;49.748;8.490;2022-07-06T02:11:02;23.00;48.00
51661;DHT22;37741;49.748;8.490;2022-07-06T02:13:28;22.90;48.00
51661;DHT22;37741;49.748;8.490;2022-07-06T02:15:54;22.80;47.90
51661;DHT22;37741;49.748;8.490;2022-07-06T02:18:19;22.80;48.20
51661;DHT22;37741;49.748;8.490;2022-07-06T02:20:45;22.80;48.30
51661;DHT22;37741;49.748;8.490;2022-07-06T02:23:11;22.70;48.40
51661;DHT22;37741;49.748;8.490;2022-07-06T02:25:36;22.70;48.50
51661;DHT22;37741;49.748;8.490;2022-07-06T02:28:02;22.60;48.50
51661;DHT22;37741;49.748;8.490;2022-07-06T02:30:28;22.50;48.50
51661;DHT22;37741;49.748;8.490;2022-07-06T02:32:53;22.50;48.60
51661;DHT22;37741;49.748;8.490;2022-07-06T02:35:19;22.50;48.60
51661;DHT22;37741;49.748;8.490;2022-07-06T02:37:45;22.40;48.80
51661;DHT22;37741;49.748;8.490;2022-07-06T02:40:11;22.40;48.80
51661;DHT22;37741;49.748;8.490;2022-07-06T02:42:37;22.40;49.10
51661;DHT22;37741;49.748;8.490;2022-07-06T02:45:02;22.30;49.10
51661;DHT22;37741;49.748;8.490;2022-07-06T02:47:28;22.20;49.20
51661;DHT22;37741;49.748;8.490;2022-07-06T02:49:54;22.20;49.20
51661;DHT22;37741;49.748;8.490;2022-07-06T02:52:20;22.20;49.30
51661;DHT22;37741;49.748;8.490;2022-07-06T02:54:45;22.20;49.40
51661;DHT22;37741;49.748;8.490;2022-07-06T02:57:11;22.10;49.30
51661;DHT22;37741;49.748;8.490;2022-07-06T02:59:37;22.10;49.40
51661;DHT22;37741;49.748;8.490;2022-07-06T03:02:06;22.10;49.40
51661;DHT22;37741;49.748;8.490;2022-07-06T03:04:32;22.00;49.40
51661;DHT22;37741;49.748;8.490;2022-07-06T03:06:58;22.00;49.40
51661;DHT22;37741;49.748;8.490;2022-07-06T03:09:24;22.00;49.50
51661;DHT22;37741;49.748;8.490;2022-07-06T03:11:49;21.90;49.60
51661;DHT22;37741;49.748;8.490;2022-07-06T03:14:15;21.90;49.50
51661;DHT22;37741;49.748;8.490;2022-07-06T03:16:41;21.80;49.50
51661;DHT22;37741;49.748;8.490;2022-07-06T03:19:07;21.80;49.60
51661;DHT22;37741;49.748;8.490;2022-07-06T03:21:32;21.80;49.60
51661;DHT22;37741;49.748;8.490;2022-07-06T03:23:58;21.70;49.60
51661;DHT22;37741;49.748;8.490;2022-07-06T03:26:24;21.70;49.60
51661;DHT22;37741;49.748;8.490;2022-07-06T03:28:49;21.70;49.60
51661;DHT22;37741;49.748;8.490;2022-07-06T03:31:15;21.70;49.70
51661;DHT22;37741;49.748;8.490;2022-07-06T03:33:41;21.70;49.70
51661;DHT22;37741;49.748;8.490;2022-07-06T03:36:07;21.60;49.70
51661;DHT22;37741;49.748;8.490;2022-07-06T03:38:33;21.60;49.70
51661;DHT22;37741;49.748;8.490;2022-07-06T03:40:59;21.60;49.80
51661;DHT22;37741;49.748;8.490;2022-07-06T03:43:25;21.60;49.90
51661;DHT22;37741;49.748;8.490;2022-07-06T03:45:50;21.60;50.00
51661;DHT22;37741;49.748;8.490;2022-07-06T03:48:16;21.50;49.90
51661;DHT22;37741;49.748;8.490;2022-07-06T03:50:42;21.50;49.90
51661;DHT22;37741;49.748;8.490;2022-07-06T03:53:08;21.50;50.00
51661;DHT22;37741;49.748;8.490;2022-07-06T03:55:34;21.50;50.00
51661;DHT22;37741;49.748;8.490;2022-07-06T03:58:00;21.50;50.00
51661;DHT22;37741;49.748;8.490;2022-07-06T04:00:26;21.40;50.00
51661;DHT22;37741;49.748;8.490;2022-07-06T04:02:51;21.40;50.00
51661;DHT22;37741;49.748;8.490;2022-07-06T04:05:17;21.40;50.10
51661;DHT22;37741;49.748;8.490;2022-07-06T04:07:49;21.40;50.10
51661;DHT22;37741;49.748;8.490;2022-07-06T04:10:15;21.40;50.00
51661;DHT22;37741;49.748;8.490;2022-07-06T04:12:42;21.40;50.00
51661;DHT22;37741;49.748;8.490;2022-07-06T04:15:09;21.40;50.00
51661;DHT22;37741;49.748;8.490;2022-07-06T04:17:34;21.40;50.10
51661;DHT22;37741;49.748;8.490;2022-07-06T04:20:19;21.40;50.20
51661;DHT22;37741;49.748;8.490;2022-07-06T04:22:45;21.50;50.10
51661;DHT22;37741;49.748;8.490;2022-07-06T04:25:10;21.40;50.10
51661;DHT22;37741;49.748;8.490;2022-07-06T04:27:36;21.40;50.10
51661;DHT22;37741;49.748;8.490;2022-07-06T04:30:05;21.40;50.10
51661;DHT22;37741;49.748;8.490;2022-07-06T04:32:32;21.40;50.20
51661;DHT22;37741;49.748;8.490;2022-07-06T04:35:01;21.40;50.40
51661;DHT22;37741;49.748;8.490;2022-07-06T04:37:27;21.40;50.30
51661;DHT22;37741;49.748;8.490;2022-07-06T04:39:53;21.40;50.40
51661;DHT22;37741;49.748;8.490;2022-07-06T04:42:18;21.30;50.30
51661;DHT22;37741;49.748;8.490;2022-07-06T04:44:44;21.30;50.20
51661;DHT22;37741;49.748;8.490;2022-07-06T04:47:11;21.30;50.20
51661;DHT22;37741;49.748;8.490;2022-07-06T04:49:37;21.30;50.20
51661;DHT22;37741;49.748;8.490;2022-07-06T04:52:03;21.30;50.30
51661;DHT22;37741;49.748;8.490;2022-07-06T04:54:29;21.30;50.50
51661;DHT22;37741;49.748;8.490;2022-07-06T04:56:54;21.30;50.60
51661;DHT22;37741;49.748;8.490;2022-07-06T04:59:20;21.30;50.50
51661;DHT22;37741;49.748;8.490;2022-07-06T05:01:46;21.30;50.50
51661;DHT22;37741;49.748;8.490;2022-07-06T05:04:11;21.30;50.70
51661;DHT22;37741;49.748;8.490;2022-07-06T05:06:37;21.20;50.60
51661;DHT22;37741;49.748;8.490;2022-07-06T05:09:03;21.30;50.90
51661;DHT22;37741;49.748;8.490;2022-07-06T05:11:29;21.20;50.90
51661;DHT22;37741;49.748;8.490;2022-07-06T05:13:54;21.20;50.70
51661;DHT22;37741;49.748;8.490;2022-07-06T05:16:23;21.20;50.80
51661;DHT22;37741;49.748;8.490;2022-07-06T05:18:49;21.20;51.40
51661;DHT22;37741;49.748;8.490;2022-07-06T05:21:15;21.10;50.90
51661;DHT22;37741;49.748;8.490;2022-07-06T05:23:41;21.10;50.90
51661;DHT22;37741;49.748;8.490;2022-07-06T05:26:06;21.10;51.20
51661;DHT22;37741;49.748;8.490;2022-07-06T05:28:32;21.00;51.10
51661;DHT22;37741;49.748;8.490;2022-07-06T05:30:59;21.00;51.20
51661;DHT22;37741;49.748;8.490;2022-07-06T05:33:24;21.00;51.20
51661;DHT22;37741;49.748;8.490;2022-07-06T05:35:50;21.00;51.40
51661;DHT22;37741;49.748;8.490;2022-07-06T05:38:15;21.00;51.70
51661;DHT22;37741;49.748;8.490;2022-07-06T05:40:41;21.00;51.70
51661;DHT22;37741;49.748;8.490;2022-07-06T05:43:07;20.90;51.60
51661;DHT22;37741;49.748;8.490;2022-07-06T05:45:33;20.90;51.50
51661;DHT22;37741;49.748;8.490;2022-07-06T05:47:58;20.90;51.60
51661;DHT22;37741;49.748;8.490;2022-07-06T05:50:43;20.90;51.60
51661;DHT22;37741;49.748;8.490;2022-07-06T05:53:08;20.90;51.60
51661;DHT22;37741;49.748;8.490;2022-07-06T05:55:34;20.90;51.70
51661;DHT22;37741;49.748;8.490;2022-07-06T05:58:00;20.90;51.80
51661;DHT22;37741;49.748;8.490;2022-07-06T06:00:27;20.90;51.90
51661;DHT22;37741;49.748;8.490;2022-07-06T06:02:53;20.90;51.90
51661;DHT22;37741;49.748;8.490;2022-07-06T06:05:20;21.00;51.90
51661;DHT22;37741;49.748;8.490;2022-07-06T06:07:46;21.00;52.00
51661;DHT22;37741;49.748;8.490;2022-07-06T06:10:14;21.00;51.80
51661;DHT22;37741;49.748;8.490;2022-07-06T06:12:41;21.10;51.80
51661;DHT22;37741;49.748;8.490;2022-07-06T06:15:07;21.10;51.80
51661;DHT22;37741;49.748;8.490;2022-07-06T06:17:34;21.10;51.70
51661;DHT22;37741;49.748;8.490;2022-07-06T06:20:00;21.10;51.70
51661;DHT22;37741;49.748;8.490;2022-07-06T06:22:26;21.10;51.60
51661;DHT22;37741;49.748;8.490;2022-07-06T06:24:52;21.20;51.70
51661;DHT22;37741;49.748;8.490;2022-07-06T06:27:18;21.20;51.50
51661;DHT22;37741;49.748;8.490;2022-07-06T06:29:44;21.20;51.60
51661;DHT22;37741;49.748;8.490;2022-07-06T06:32:11;21.20;51.40
51661;DHT22;37741;49.748;8.490;2022-07-06T06:34:37;21.20;51.40
51661;DHT22;37741;49.748;8.490;2022-07-06T06:37:03;21.20;51.30
51661;DHT22;37741;49.748;8.490;2022-07-06T06:39:29;21.20;51.30
51661;DHT22;37741;49.748;8.490;2022-07-06T06:41:55;21.20;51.20
51661;DHT22;37741;49.748;8.490;2022-07-06T06:44:20;21.20;51.30
51661;DHT22;37741;49.748;8.490;2022-07-06T06:46:49;21.20;51.30
51661;DHT22;37741;49.748;8.490;2022-07-06T06:49:14;21.20;51.20
51661;DHT22;37741;49.748;8.490;2022-07-06T06:51:40;21.20;51.20
51661;DHT22;37741;49.748;8.490;2022-07-06T06:54:06;21.20;51.20
51661;DHT22;37741;49.748;8.490;2022-07-06T06:56:32;21.20;51.10
51661;DHT22;37741;49.748;8.490;2022-07-06T06:58:58;21.20;51.10
51661;DHT22;37741;49.748;8.490;2022-07-06T07:01:23;21.20;51.00
51661;DHT22;37741;49.748;8.490;2022-07-06T07:03:51;21.20;51.00
51661;DHT22;37741;49.748;8.490;2022-07-06T07:06:16;21.20;51.00
51661;DHT22;37741;49.748;8.490;2022-07-06T07:08:42;21.10;50.90
51661;DHT22;37741;49.748;8.490;2022-07-06T07:11:08;21.10;51.00
51661;DHT22;37741;49.748;8.490;2022-07-06T07:13:33;21.10;51.20
51661;DHT22;37741;49.748;8.490;2022-07-06T07:15:59;21.10;51.00
51661;DHT22;37741;49.748;8.490;2022-07-06T07:18:25;21.20;51.00
51661;DHT22;37741;49.748;8.490;2022-07-06T07:20:50;21.20;50.90
51661;DHT22;37741;49.748;8.490;2022-07-06T07:23:16;21.30;50.80
51661;DHT22;37741;49.748;8.490;2022-07-06T07:25:42;21.30;50.50
51661;DHT22;37741;49.748;8.490;2022-07-06T07:28:07;21.40;50.50
51661;DHT22;37741;49.748;8.490;2022-07-06T07:30:34;21.50;50.40
51661;DHT22;37741;49.748;8.490;2022-07-06T07:32:59;21.50;50.20
51661;DHT22;37741;49.748;8.490;2022-07-06T07:35:26;21.50;50.10
51661;DHT22;37741;49.748;8.490;2022-07-06T07:37:52;21.60;50.10
51661;DHT22;37741;49.748;8.490;2022-07-06T07:40:18;21.60;50.00
51661;DHT22;37741;49.748;8.490;2022-07-06T07:42:44;21.60;49.90
51661;DHT22;37741;49.748;8.490;2022-07-06T07:45:11;21.60;49.90
51661;DHT22;37741;49.748;8.490;2022-07-06T07:47:38;21.60;49.90
51661;DHT22;37741;49.748;8.490;2022-07-06T07:50:04;21.70;49.80
51661;DHT22;37741;49.748;8.490;2022-07-06T07:52:30;21.60;49.70
51661;DHT22;37741;49.748;8.490;2022-07-06T07:54:55;21.70;49.80
51661;DHT22;37741;49.748;8.490;2022-07-06T07:57:21;21.70;49.70
51661;DHT22;37741;49.748;8.490;2022-07-06T07:59:47;21.70;49.50
51661;DHT22;37741;49.748;8.490;2022-07-06T08:02:12;21.70;49.40
51661;DHT22;37741;49.748;8.490;2022-07-06T08:04:38;21.70;49.50
51661;DHT22;37741;49.748;8.490;2022-07-06T08:10:15;21.80;49.30
51661;DHT22;37741;49.748;8.490;2022-07-06T08:12:41;21.80;49.30
51661;DHT22;37741;49.748;8.490;2022-07-06T08:15:07;21.80;49.30
51661;DHT22;37741;49.748;8.490;2022-07-06T08:17:33;21.80;49.10
51661;DHT22;37741;49.748;8.490;2022-07-06T08:19:58;21.80;48.80
51661;DHT22;37741;49.748;8.490;2022-07-06T08:22:24;21.80;49.00
51661;DHT22;37741;49.748;8.490;2022-07-06T08:24:50;21.80;48.90
51661;DHT22;37741;49.748;8.490;2022-07-06T08:27:15;21.80;49.10
51661;DHT22;37741;49.748;8.490;2022-07-06T08:29:42;21.80;49.10
51661;DHT22;37741;49.748;8.490;2022-07-06T08:32:07;21.80;49.10
51661;DHT22;37741;49.748;8.490;2022-07-06T08:34:33;21.80;49.10
51661;DHT22;37741;49.748;8.490;2022-07-06T08:36:58;21.80;49.20
51661;DHT22;37741;49.748;8.490;2022-07-06T08:39:24;21.70;49.10
51661;DHT22;37741;49.748;8.490;2022-07-06T08:41:50;21.70;49.20
51661;DHT22;37741;49.748;8.490;2022-07-06T08:44:17;21.70;49.10
51661;DHT22;37741;49.748;8.490;2022-07-06T08:46:44;21.70;49.20
51661;DHT22;37741;49.748;8.490;2022-07-06T08:49:15;21.70;48.70
51661;DHT22;37741;49.748;8.490;2022-07-06T08:51:41;21.70;48.80
51661;DHT22;37741;49.748;8.490;2022-07-06T08:54:07;21.70;48.60
51661;DHT22;37741;49.748;8.490;2022-07-06T08:56:33;21.70;48.90
51661;DHT22;37741;49.748;8.490;2022-07-06T08:58:59;21.70;49.00
51661;DHT22;37741;49.748;8.490;2022-07-06T09:01:25;21.70;48.60
51661;DHT22;37741;49.748;8.490;2022-07-06T09:03:51;21.70;48.60
51661;DHT22;37741;49.748;8.490;2022-07-06T09:06:27;21.70;48.70
51661;DHT22;37741;49.748;8.490;2022-07-06T09:08:54;21.70;48.80
51661;DHT22;37741;49.748;8.490;2022-07-06T09:11:21;21.70;48.90
51661;DHT22;37741;49.748;8.490;2022-07-06T09:13:47;21.70;49.00
51661;DHT22;37741;49.748;8.490;2022-07-06T09:16:15;21.70;48.90
51661;DHT22;37741;49.748;8.490;2022-07-06T09:18:44;21.70;48.80
51661;DHT22;37741;49.748;8.490;2022-07-06T09:21:10;21.80;48.70
51661;DHT22;37741;49.748;8.490;2022-07-06T09:23:37;21.80;48.80
51661;DHT22;37741;49.748;8.490;2022-07-06T09:26:05;21.80;48.80
51661;DHT22;37741;49.748;8.490;2022-07-06T09:28:44;21.80;48.60
51661;DHT22;37741;49.748;8.490;2022-07-06T09:31:10;21.80;48.60
51661;DHT22;37741;49.748;8.490;2022-07-06T09:33:37;21.80;48.80
51661;DHT22;37741;49.748;8.490;2022-07-06T09:36:03;21.90;48.70
51661;DHT22;37741;49.748;8.490;2022-07-06T09:38:29;21.90;48.80
51661;DHT22;37741;49.748;8.490;2022-07-06T09:40:55;21.90;48.60
51661;DHT22;37741;49.748;8.490;2022-07-06T09:43:22;21.90;48.70
51661;DHT22;37741;49.748;8.490;2022-07-06T09:45:52;21.90;48.60
51661;DHT22;37741;49.748;8.490;2022-07-06T09:48:26;21.90;48.60
51661;DHT22;37741;49.748;8.490;2022-07-06T09:51:01;21.90;48.70
51661;DHT22;37741;49.748;8.490;2022-07-06T09:53:35;21.90;48.60
51661;DHT22;37741;49.748;8.490;2022-07-06T09:56:00;21.90;48.50
51661;DHT22;37741;49.748;8.490;2022-07-06T09:58:27;21.90;48.40
51661;DHT22;37741;49.748;8.490;2022-07-06T10:00:53;22.00;48.50
51661;DHT22;37741;49.748;8.490;2022-07-06T10:03:19;22.10;48.50
51661;DHT22;37741;49.748;8.490;2022-07-06T10:05:47;22.00;48.40
51661;DHT22;37741;49.748;8.490;2022-07-06T10:08:14;22.00;48.40
51661;DHT22;37741;49.748;8.490;2022-07-06T10:10:41;22.10;48.40
51661;DHT22;37741;49.748;8.490;2022-07-06T10:13:07;22.10;48.40
51661;DHT22;37741;49.748;8.490;2022-07-06T10:15:36;22.10;48.40
51661;DHT22;37741;49.748;8.490;2022-07-06T10:18:04;22.10;48.30
51661;DHT22;37741;49.748;8.490;2022-07-06T10:20:33;22.10;48.00
51661;DHT22;37741;49.748;8.490;2022-07-06T10:23:01;22.10;48.20
51661;DHT22;37741;49.748;8.490;2022-07-06T10:25:27;22.10;48.00
51661;DHT22;37741;49.748;8.490;2022-07-06T10:27:54;22.20;47.50
51661;DHT22;37741;49.748;8.490;2022-07-06T10:30:21;22.20;47.70
51661;DHT22;37741;49.748;8.490;2022-07-06T10:32:48;22.30;47.20
51661;DHT22;37741;49.748;8.490;2022-07-06T10:35:16;22.30;47.40
51661;DHT22;37741;49.748;8.490;2022-07-06T10:37:44;22.40;47.50
51661;DHT22;37741;49.748;8.490;2022-07-06T10:40:13;22.30;47.50
51661;DHT22;37741;49.748;8.490;2022-07-06T10:43:11;22.40;47.50
51661;DHT22;37741;49.748;8.490;2022-07-06T10:53:11;22.50;46.60
51661;DHT22;37741;49.748;8.490;2022-07-06T10:55:38;22.50;46.60
51661;DHT22;37741;49.748;8.490;2022-07-06T10:58:05;22.50;46.40
51661;DHT22;37741;49.748;8.490;2022-07-06T11:00:53;22.60;46.10
51661;DHT22;37741;49.748;8.490;2022-07-06T11:03:41;22.60;45.90
51661;DHT22;37741;49.748;8.490;2022-07-06T11:06:21;22.60;45.50
51661;DHT22;37741;49.748;8.490;2022-07-06T11:08:54;22.70;45.20
51661;DHT22;37741;49.748;8.490;2022-07-06T11:13:58;22.70;45.30
51661;DHT22;37741;49.748;8.490;2022-07-06T11:16:28;22.80;45.60
51661;DHT22;37741;49.748;8.490;2022-07-06T11:19:06;22.80;45.40
51661;DHT22;37741;49.748;8.490;2022-07-06T11:21:52;22.80;45.30
51661;DHT22;37741;49.748;8.490;2022-07-06T11:24:20;22.80;44.90
51661;DHT22;37741;49.748;8.490;2022-07-06T11:26:50;22.80;44.80
51661;DHT22;37741;49.748;8.490;2022-07-06T11:29:18;22.90;44.70
51661;DHT22;37741;49.748;8.490;2022-07-06T11:31:48;22.90;44.90
51661;DHT22;37741;49.748;8.490;2022-07-06T11:34:20;22.90;44.40
51661;DHT22;37741;49.748;8.490;2022-07-06T11:36:46;22.90;44.20
51661;DHT22;37741;49.748;8.490;2022-07-06T11:39:13;22.90;44.50
51661;DHT22;37741;49.748;8.490;2022-07-06T11:41:39;22.90;44.50
51661;DHT22;37741;49.748;8.490;2022-07-06T11:44:05;22.90;44.50
51661;DHT22;37741;49.748;8.490;2022-07-06T11:46:32;22.80;44.40
51661;DHT22;37741;49.748;8.490;2022-07-06T11:49:04;22.90;44.50
51661;DHT22;37741;49.748;8.490;2022-07-06T11:51:31;22.90;44.60
51661;DHT22;37741;49.748;8.490;2022-07-06T11:53:59;22.90;44.50
51661;DHT22;37741;49.748;8.490;2022-07-06T11:56:44;22.90;44.50
51661;DHT22;37741;49.748;8.490;2022-07-06T11:59:10;22.90;44.40
51661;DHT22;37741;49.748;8.490;2022-07-06T12:01:36;22.90;44.20
51661;DHT22;37741;49.748;8.490;2022-07-06T12:04:07;22.90;44.30
51661;DHT22;37741;49.748;8.490;2022-07-06T12:06:33;23.00;44.10
51661;DHT22;37741;49.748;8.490;2022-07-06T12:09:00;22.90;44.40
51661;DHT22;37741;49.748;8.490;2022-07-06T12:11:34;23.00;44.40
51661;DHT22;37741;49.748;8.490;2022-07-06T12:14:13;23.00;44.20
51661;DHT22;37741;49.748;8.490;2022-07-06T12:16:39;23.00;44.00
51661;DHT22;37741;49.748;8.490;2022-07-06T12:19:05;23.00;44.50
51661;DHT22;37741;49.748;8.490;2022-07-06T12:21:33;23.00;44.00
51661;DHT22;37741;49.748;8.490;2022-07-06T12:23:59;23.00;44.40
51661;DHT22;37741;49.748;8.490;2022-07-06T12:26:27;23.00;44.40
51661;DHT22;37741;49.748;8.490;2022-07-06T12:29:12;23.10;43.70
51661;DHT22;37741;49.748;8.490;2022-07-06T12:31:44;23.10;43.80
51661;DHT22;37741;49.748;8.490;2022-07-06T12:34:18;23.20;43.70
51661;DHT22;37741;49.748;8.490;2022-07-06T12:36:46;23.20;42.80
51661;DHT22;37741;49.748;8.490;2022-07-06T12:39:13;23.20;42.60
51661;DHT22;37741;49.748;8.490;2022-07-06T12:41:47;23.30;42.00
51661;DHT22;37741;49.748;8.490;2022-07-06T12:44:16;23.30;42.20
51661;DHT22;37741;49.748;8.490;2022-07-06T12:46:42;23.30;41.70
51661;DHT22;37741;49.748;8.490;2022-07-06T12:51:58;23.40;42.80
51661;DHT22;37741;49.748;8.490;2022-07-06T12:54:27;23.50;42.60
51661;DHT22;37741;49.748;8.490;2022-07-06T12:59:29;23.60;41.60
51661;DHT22;37741;49.748;8.490;2022-07-06T13:01:55;23.70;41.80
51661;DHT22;37741;49.748;8.490;2022-07-06T13:04:24;23.80;41.60
51661;DHT22;37741;49.748;8.490;2022-07-06T13:06:51;23.90;41.20
51661;DHT22;37741;49.748;8.490;2022-07-06T13:09:16;24.00;41.10
51661;DHT22;37741;49.748;8.490;2022-07-06T13:11:44;24.00;41.60
51661;DHT22;37741;49.748;8.490;2022-07-06T13:14:11;24.10;41.40
51661;DHT22;37741;49.748;8.490;2022-07-06T13:16:36;24.20;41.30
51661;DHT22;37741;49.748;8.490;2022-07-06T13:19:02;24.20;41.20
51661;DHT22;37741;49.748;8.490;2022-07-06T13:21:29;24.30;41.20
51661;DHT22;37741;49.748;8.490;2022-07-06T13:23:55;24.40;40.80
51661;DHT22;37741;49.748;8.490;2022-07-06T13:26:21;24.40;40.90
51661;DHT22;37741;49.748;8.490;2022-07-06T13:28:46;24.50;40.60
51661;DHT22;37741;49.748;8.490;2022-07-06T13:31:12;24.60;40.80
51661;DHT22;37741;49.748;8.490;2022-07-06T13:33:38;24.70;40.90
51661;DHT22;37741;49.748;8.490;2022-07-06T13:36:04;24.80;40.60
51661;DHT22;37741;49.748;8.490;2022-07-06T13:38:30;24.90;40.30
51661;DHT22;37741;49.748;8.490;2022-07-06T13:40:55;25.00;40.00
51661;DHT22;37741;49.748;8.490;2022-07-06T13:43:21;25.10;39.70
51661;DHT22;37741;49.748;8.490;2022-07-06T13:45:47;25.20;39.60
51661;DHT22;37741;49.748;8.490;2022-07-06T13:48:13;25.30;39.30
51661;DHT22;37741;49.748;8.490;2022-07-06T13:50:39;25.40;39.50
51661;DHT22;37741;49.748;8.490;2022-07-06T13:53:05;25.50;39.70
51661;DHT22;37741;49.748;8.490;2022-07-06T13:55:32;25.60;39.20
51661;DHT22;37741;49.748;8.490;2022-07-06T13:57:58;25.60;39.20
51661;DHT22;37741;49.748;8.490;2022-07-06T14:00:24;25.80;39.20
51661;DHT22;37741;49.748;8.490;2022-07-06T14:02:50;25.90;38.90
51661;DHT22;37741;49.748;8.490;2022-07-06T14:05:16;25.90;38.70
51661;DHT22;37741;49.748;8.490;2022-07-06T14:07:42;25.90;38.60
51661;DHT22;37741;49.748;8.490;2022-07-06T14:10:08;26.00;37.90
51661;DHT22;37741;49.748;8.490;2022-07-06T14:12:34;26.10;37.80
51661;DHT22;37741;49.748;8.490;2022-07-06T14:14:59;26.10;37.80
51661;DHT22;37741;49.748;8.490;2022-07-06T14:17:26;26.20;37.90
51661;DHT22;37741;49.748;8.490;2022-07-06T14:19:51;26.30;37.80
51661;DHT22;37741;49.748;8.490;2022-07-06T14:22:17;26.40;38.60
51661;DHT22;37741;49.748;8.490;2022-07-06T14:24:43;26.40;37.40
51661;DHT22;37741;49.748;8.490;2022-07-06T14:27:08;26.50;37.40
51661;DHT22;37741;49.748;8.490;2022-07-06T14:29:34;26.60;37.40
51661;DHT22;37741;49.748;8.490;2022-07-06T14:32:00;26.70;37.30
51661;DHT22;37741;49.748;8.490;2022-07-06T14:34:26;26.70;37.00
51661;DHT22;37741;49.748;8.490;2022-07-06T14:36:52;26.70;37.00
51661;DHT22;37741;49.748;8.490;2022-07-06T14:39:18;26.70;37.30
51661;DHT22;37741;49.748;8.490;2022-07-06T14:41:43;26.70;37.30
51661;DHT22;37741;49.748;8.490;2022-07-06T14:44:09;26.70;36.80
51661;DHT22;37741;49.748;8.490;2022-07-06T14:46:35;26.70;37.00
51661;DHT22;37741;49.748;8.490;2022-07-06T14:49:01;26.70;36.80
51661;DHT22;37741;49.748;8.490;2022-07-06T14:51:27;26.80;37.30
51661;DHT22;37741;49.748;8.490;2022-07-06T14:53:52;26.80;37.00
51661;DHT22;37741;49.748;8.490;2022-07-06T14:56:18;26.80;37.00
51661;DHT22;37741;49.748;8.490;2022-07-06T14:58:44;26.80;36.50
51661;DHT22;37741;49.748;8.490;2022-07-06T15:01:10;26.80;36.90
51661;DHT22;37741;49.748;8.490;2022-07-06T15:03:36;26.80;36.20
51661;DHT22;37741;49.748;8.490;2022-07-06T15:06:02;26.70;36.20
51661;DHT22;37741;49.748;8.490;2022-07-06T15:08:28;26.70;35.80
51661;DHT22;37741;49.748;8.490;2022-07-06T15:10:53;26.70;36.80
51661;DHT22;37741;49.748;8.490;2022-07-06T15:13:19;26.70;36.70
51661;DHT22;37741;49.748;8.490;2022-07-06T15:15:45;26.70;36.40
51661;DHT22;37741;49.748;8.490;2022-07-06T15:18:11;26.70;36.10
51661;DHT22;37741;49.748;8.490;2022-07-06T15:20:36;26.70;36.80
51661;DHT22;37741;49.748;8.490;2022-07-06T15:23:02;26.70;36.30
51661;DHT22;37741;49.748;8.490;2022-07-06T15:25:28;26.70;36.40
51661;DHT22;37741;49.748;8.490;2022-07-06T15:27:54;26.70;36.80
51661;DHT22;37741;49.748;8.490;2022-07-06T15:30:20;26.70;37.40
51661;DHT22;37741;49.748;8.490;2022-07-06T15:32:46;26.70;37.40
51661;DHT22;37741;49.748;8.490;2022-07-06T15:35:11;26.70;36.90
51661;DHT22;37741;49.748;8.490;2022-07-06T15:37:38;26.60;37.30
51661;DHT22;37741;49.748;8.490;2022-07-06T15:40:04;26.60;37.20
51661;DHT22;37741;49.748;8.490;2022-07-06T15:42:31;26.60;37.30
51661;DHT22;37741;49.748;8.490;2022-07-06T15:44:57;26.60;36.80
51661;DHT22;37741;49.748;8.490;2022-07-06T15:47:22;26.60;36.90